ADDS METAR Data INFO
IDs: Format: Raw Decoded Include TAF

Data at: 1858 UTC 22 Sep 2017

METAR for:KBRO (Brownsville Intl, TX, US)
Text:KBRO 221853Z 14012G19KT 10SM SCT033 BKN041 32/24 A2988 RMK AO2 SLP117 T03170244
Temperature: 31.7°C ( 89°F)
Dewpoint: 24.4°C ( 76°F) [RH = 65%]
Pressure (altimeter):29.88 inches Hg (1011.9 mb) [Sea level pressure: 1011.7 mb]
Winds:from the SE (140 degrees) at 14 MPH (12 knots; 6.2 m/s) gusting to 22 MPH (19 knots; 9.8 m/s)
Visibility:10 or more sm (16+ km)
Ceiling:4100 feet AGL
Clouds: scattered clouds at 3300 feet AGL, broken clouds at 4100 feet AGL